Time;durP1;ratioP1;P1;durP2;ratioP2;P2;SDS_P1;SDS_P2;PMS_P1;PMS_P2;Temp;Humidity;BMP_temperature;BMP_pressure;BME280_temperature;BME280_humidity;BME280_pressure;Samples;Min_cycle;Max_cycle;Signal;HPM_P1;HPM_P2
2021/05/13 00:02:12;;;;;;;16.33;14.60;;;;;;;7.75;100.00;97312.81;5006625;28;20324;-69
2021/05/13 00:04:40;;;;;;;14.53;13.20;;;;;;;7.69;100.00;97316.13;5006973;28;20201;-69
2021/05/13 00:07:07;;;;;;;14.67;13.27;;;;;;;7.73;100.00;97309.53;5006398;28;20244;-69
2021/05/13 00:09:35;;;;;;;16.00;14.40;;;;;;;7.72;100.00;97321.06;5009242;28;20204;-69
2021/05/13 00:12:03;;;;;;;15.23;13.60;;;;;;;7.82;100.00;97315.66;5002362;28;20225;-68
2021/05/13 00:14:30;;;;;;;15.70;14.27;;;;;;;7.73;100.00;97306.91;5005559;28;20201;-69
2021/05/13 00:16:59;;;;;;;15.73;14.10;;;;;;;7.80;100.00;97313.19;5005938;28;20263;-69
2021/05/13 00:19:27;;;;;;;16.20;14.60;;;;;;;7.82;100.00;97315.66;5005521;28;20418;-70
2021/05/13 00:21:55;;;;;;;15.80;14.30;;;;;;;7.83;100.00;97304.09;5005592;28;20224;-69
2021/05/13 00:24:22;;;;;;;16.97;15.37;;;;;;;7.89;100.00;97308.72;5001487;28;20215;-70
2021/05/13 00:26:50;;;;;;;15.97;13.97;;;;;;;7.91;100.00;97312.03;5006058;28;20228;-70
2021/05/13 00:29:26;;;;;;;14.93;13.47;;;;;;;7.78;100.00;97301.97;5001773;28;20619;-70
2021/05/13 00:31:53;;;;;;;15.53;14.10;;;;;;;7.80;100.00;97291.25;5005494;28;20283;-69
2021/05/13 00:34:22;;;;;;;16.40;14.90;;;;;;;7.80;100.00;97291.25;5003682;28;20232;-68
2021/05/13 00:36:49;;;;;;;16.27;14.50;;;;;;;7.79;100.00;97295.72;5004437;28;20205;-71
2021/05/13 00:39:17;;;;;;;16.93;13.17;;;;;;;7.82;100.00;97284.84;5002924;28;20225;-68
2021/05/13 00:41:44;;;;;;;15.33;13.87;;;;;;;7.79;100.00;97284.31;5002551;28;20220;-69
2021/05/13 00:44:11;;;;;;;16.03;14.63;;;;;;;7.78;100.00;97286.16;5001870;28;20212;-69
2021/05/13 00:46:39;;;;;;;15.03;13.53;;;;;;;7.72;100.00;97285.97;5003999;28;20897;-69
2021/05/13 00:49:09;;;;;;;15.33;13.83;;;;;;;7.76;100.00;97298.66;5002653;28;20220;-67
2021/05/13 00:51:37;;;;;;;15.57;13.97;;;;;;;7.67;100.00;97297.84;5005876;28;20240;-70
2021/05/13 00:54:05;;;;;;;15.40;13.60;;;;;;;7.63;100.00;97295.69;5005281;28;20210;-69
2021/05/13 00:56:33;;;;;;;15.97;14.33;;;;;;;7.61;100.00;97293.22;5004839;28;20574;-69
2021/05/13 00:59:06;;;;;;;14.67;13.37;;;;;;;7.52;100.00;97297.66;5003053;28;20216;-70
2021/05/13 01:01:49;;;;;;;16.40;14.83;;;;;;;7.44;100.00;97296.78;5002469;28;20287;-68
2021/05/13 01:04:18;;;;;;;15.13;13.57;;;;;;;7.65;100.00;97291.06;5004785;28;20209;-69
2021/05/13 01:06:47;;;;;;;16.97;14.20;;;;;;;7.62;100.00;97288.75;5003051;28;20211;-69
2021/05/13 01:09:21;;;;;;;15.47;13.87;;;;;;;7.64;100.00;97284.97;5001513;28;20272;-67
2021/05/13 01:11:52;;;;;;;15.80;14.30;;;;;;;7.48;100.00;97283.13;5002414;28;20228;-70
2021/05/13 01:14:23;;;;;;;18.10;15.70;;;;;;;7.60;100.00;97286.28;5004907;28;20598;-70
2021/05/13 01:16:58;;;;;;;16.43;14.93;;;;;;;7.50;100.00;97289.06;5003502;28;20208;-67
2021/05/13 01:19:26;;;;;;;16.03;14.60;;;;;;;7.38;100.00;97287.72;5001374;28;20215;-69
2021/05/13 01:21:55;;;;;;;17.30;13.93;;;;;;;7.47;100.00;97283.28;5004334;28;20224;-69
2021/05/13 01:24:23;;;;;;;15.33;13.70;;;;;;;7.31;100.00;97284.06;5004951;28;20213;-70
2021/05/13 01:26:50;;;;;;;15.63;14.03;;;;;;;7.35;100.00;97275.69;5004617;28;20216;-69
2021/05/13 01:29:20;;;;;;;16.27;13.60;;;;;;;7.27;100.00;97278.31;5000938;28;20291;-66
2021/05/13 01:31:48;;;;;;;16.17;14.57;;;;;;;7.20;100.00;97277.31;5004633;28;20639;-70
2021/05/13 01:34:16;;;;;;;18.03;16.23;;;;;;;7.10;100.00;97275.59;5003668;28;20251;-68
2021/05/13 01:36:44;;;;;;;16.43;14.73;;;;;;;7.03;100.00;97277.25;5004231;28;20208;-67
2021/05/13 01:39:13;;;;;;;16.73;13.90;;;;;;;7.09;100.00;97275.78;5002592;28;20212;-68
2021/05/13 01:41:42;;;;;;;16.13;14.47;;;;;;;7.07;100.00;97275.94;5004410;28;20228;-69
2021/05/13 01:44:11;;;;;;;16.83;14.43;;;;;;;7.18;100.00;97266.06;5004254;28;20588;-69
2021/05/13 01:46:38;;;;;;;16.13;14.57;;;;;;;7.28;100.00;97265.94;5003174;28;20203;-71
2021/05/13 01:49:10;;;;;;;16.23;13.33;;;;;;;7.32;100.00;97262.00;5002682;28;20236;-68
2021/05/13 01:51:38;;;;;;;16.43;14.57;;;;;;;7.14;100.00;97252.41;5001503;28;20256;-69
2021/05/13 01:54:06;;;;;;;16.90;15.13;;;;;;;7.19;100.00;97252.75;5001390;28;20217;-68
2021/05/13 01:56:34;;;;;;;15.73;14.13;;;;;;;7.27;100.00;97251.13;5004280;28;20209;-69
2021/05/13 01:59:02;;;;;;;15.63;14.03;;;;;;;7.26;100.00;97247.66;5002902;28;20679;-69
2021/05/13 02:01:29;;;;;;;15.80;13.67;;;;;;;7.19;100.00;97246.63;5003340;28;20233;-68
2021/05/13 02:03:57;;;;;;;16.67;15.13;;;;;;;7.35;100.00;97241.41;5001806;28;20208;-68
2021/05/13 02:06:24;;;;;;;15.63;14.03;;;;;;;7.30;100.00;97235.81;5003809;28;20209;-69
2021/05/13 02:08:52;;;;;;;17.17;15.37;;;;;;;7.28;100.00;97234.31;5002825;28;20215;-70
2021/05/13 02:11:19;;;;;;;16.33;14.77;;;;;;;7.19;100.00;97231.66;5004209;28;20232;-68
2021/05/13 02:13:47;;;;;;;16.97;15.27;;;;;;;7.37;100.00;97235.97;5001591;28;20697;-68
2021/05/13 02:16:15;;;;;;;15.57;14.23;;;;;;;7.44;100.00;97238.78;5001610;28;20566;-69
2021/05/13 02:18:42;;;;;;;15.47;14.00;;;;;;;7.39;100.00;97232.19;5002574;28;20352;-68
2021/05/13 02:21:10;;;;;;;17.20;15.50;;;;;;;7.27;100.00;97222.97;5004104;28;20271;-69
2021/05/13 02:23:37;;;;;;;15.90;14.40;;;;;;;7.34;100.00;97231.03;5001097;28;20205;-68
2021/05/13 02:26:05;;;;;;;16.67;15.03;;;;;;;7.31;100.00;97232.19;5003567;28;20286;-66
2021/05/13 02:28:32;;;;;;;15.27;13.73;;;;;;;7.22;100.00;97230.53;5001909;28;20236;-67
2021/05/13 02:31:00;;;;;;;15.83;14.23;;;;;;;7.31;100.00;97231.34;5003624;28;20228;-69
2021/05/13 02:33:28;;;;;;;15.60;13.97;;;;;;;7.23;100.00;97225.09;5002753;28;20216;-70
2021/05/13 02:35:55;;;;;;;16.63;14.97;;;;;;;7.41;100.00;97225.94;5003689;28;20685;-70
2021/05/13 02:38:23;;;;;;;17.20;15.47;;;;;;;7.29;100.00;97220.16;5004698;28;20205;-70
2021/05/13 02:40:50;;;;;;;15.23;13.70;;;;;;;7.24;100.00;97221.47;5002401;28;20228;-71
2021/05/13 02:43:18;;;;;;;16.43;14.93;;;;;;;7.43;100.00;97221.31;4998039;28;20209;-69
2021/05/13 02:45:45;;;;;;;15.30;13.70;;;;;;;7.35;100.00;97216.88;5003174;28;20201;-69
2021/05/13 02:48:14;;;;;;;15.70;14.30;;;;;;;7.35;100.00;97212.44;5003957;28;20208;-67
2021/05/13 02:50:41;;;;;;;15.90;14.50;;;;;;;7.20;100.00;97214.88;5001730;28;20271;-69
2021/05/13 02:53:08;;;;;;;16.27;14.43;;;;;;;7.28;100.00;97215.88;5003959;28;20205;-69
2021/05/13 02:55:36;;;;;;;15.90;14.23;;;;;;;7.23;100.00;97214.53;5005394;28;20200;-69
2021/05/13 02:58:04;;;;;;;15.67;14.07;;;;;;;7.36;100.00;97215.88;5002398;28;20205;-68
2021/05/13 03:00:34;;;;;;;15.67;14.17;;;;;;;7.37;100.00;97214.88;5002064;28;20520;-71
2021/05/13 03:03:02;;;;;;;15.33;13.93;;;;;;;7.34;100.00;97216.06;5003447;28;20201;-70
2021/05/13 03:05:31;;;;;;;15.47;13.80;;;;;;;7.39;100.00;97218.22;5004611;28;20793;-69
2021/05/13 03:08:01;;;;;;;17.50;14.30;;;;;;;7.35;100.00;97216.88;5006880;28;20217;-70
2021/05/13 03:10:36;;;;;;;15.13;13.83;;;;;;;7.44;100.00;97210.63;5006178;28;20229;-69
2021/05/13 03:13:04;;;;;;;14.83;13.37;;;;;;;7.43;100.00;97208.16;5008654;28;20201;-69
2021/05/13 03:15:32;;;;;;;15.17;13.77;;;;;;;7.31;100.00;97211.09;5007285;28;20209;-69
2021/05/13 03:18:00;;;;;;;17.90;14.00;;;;;;;7.35;100.00;97209.78;5006947;28;20209;-69
2021/05/13 03:20:33;;;;;;;15.93;14.50;;;;;;;7.29;100.00;97210.44;5004043;28;20243;-71
2021/05/13 03:23:02;;;;;;;14.83;13.43;;;;;;;7.42;100.00;97206.50;5006526;28;20546;-70
2021/05/13 03:25:31;;;;;;;14.63;13.20;;;;;;;7.34;100.00;97208.16;5001465;28;20775;-71
2021/05/13 03:28:07;;;;;;;15.80;14.30;;;;;;;7.37;100.00;97212.25;5006619;28;20205;-68
2021/05/13 03:30:37;;;;;;;14.87;13.47;;;;;;;7.34;100.00;97209.94;5001769;28;20671;-67
2021/05/13 03:33:05;;;;;;;15.00;13.57;;;;;;;7.34;100.00;97213.41;5005383;28;20681;-70
2021/05/13 03:35:33;;;;;;;15.00;13.27;;;;;;;7.26;100.00;97216.03;5003667;28;20213;-71
2021/05/13 03:38:02;;;;;;;14.80;12.90;;;;;;;7.30;100.00;97211.25;5003247;28;20824;-70
2021/05/13 03:40:30;;;;;;;14.50;12.93;;;;;;;7.31;100.00;97205.00;5004329;28;20217;-67
2021/05/13 03:42:59;;;;;;;14.83;13.43;;;;;;;7.23;100.00;97209.28;5003920;28;20584;-69
2021/05/13 03:45:27;;;;;;;16.87;13.60;;;;;;;7.33;100.00;97209.13;5007081;28;20260;-70
2021/05/13 03:47:55;;;;;;;14.03;12.77;;;;;;;7.23;100.00;97208.47;5007356;28;20201;-69
2021/05/13 03:50:23;;;;;;;13.90;12.60;;;;;;;7.32;100.00;97206.66;5002558;28;20227;-69
2021/05/13 03:52:50;;;;;;;14.67;13.27;;;;;;;7.24;100.00;97205.66;5004458;28;20229;-69
2021/05/13 03:55:18;;;;;;;15.77;13.47;;;;;;;7.22;100.00;97207.63;5004253;28;20217;-68
2021/05/13 03:57:46;;;;;;;14.20;12.90;;;;;;;7.21;100.00;97200.72;5002602;28;20213;-69
2021/05/13 04:00:17;;;;;;;15.77;14.37;;;;;;;7.32;100.00;97204.00;5003626;28;20256;-69
2021/05/13 04:02:44;;;;;;;14.83;13.43;;;;;;;7.33;100.00;97205.66;5005327;28;20228;-70
2021/05/13 04:05:13;;;;;;;13.53;12.33;;;;;;;7.48;100.00;97203.22;5004352;28;20209;-69
2021/05/13 04:07:40;;;;;;;14.87;13.07;;;;;;;7.41;100.00;97203.06;5004403;28;20231;-72
2021/05/13 04:10:09;;;;;;;13.50;12.30;;;;;;;7.37;100.00;97204.34;5003610;28;20567;-70
2021/05/13 04:12:38;;;;;;;13.90;12.70;;;;;;;7.42;100.00;97196.78;5003251;28;20570;-70
2021/05/13 04:15:07;;;;;;;14.20;12.97;;;;;;;7.43;100.00;97195.81;5004279;28;20267;-70
2021/05/13 04:17:35;;;;;;;13.70;12.27;;;;;;;7.36;100.00;97197.41;5002601;28;20321;-70
2021/05/13 04:20:03;;;;;;;13.23;12.13;;;;;;;7.39;100.00;97205.03;5003576;28;20216;-70
2021/05/13 04:22:31;;;;;;;13.27;12.00;;;;;;;7.48;100.00;97203.22;5003524;28;20212;-71
2021/05/13 04:24:58;;;;;;;12.47;11.37;;;;;;;7.39;100.00;97203.22;5003972;28;20206;-73
2021/05/13 04:27:26;;;;;;;14.20;11.73;;;;;;;7.36;100.00;97205.34;5003919;28;20584;-72
2021/05/13 04:29:54;;;;;;;13.03;11.67;;;;;;;7.63;100.00;97200.75;5003636;28;20205;-70
2021/05/13 04:32:21;;;;;;;12.10;11.10;;;;;;;7.75;100.00;97201.25;5003120;28;20246;-70
2021/05/13 04:34:49;;;;;;;11.37;10.47;;;;;;;7.74;100.00;97200.41;5000989;28;20688;-69
2021/05/13 04:37:16;;;;;;;13.00;11.70;;;;;;;7.63;100.00;97200.75;5003985;28;20205;-70
2021/05/13 04:39:44;;;;;;;12.70;11.53;;;;;;;7.64;100.00;97202.38;5003856;28;20213;-70
2021/05/13 04:42:11;;;;;;;12.93;11.73;;;;;;;7.64;100.00;97197.97;5003660;28;20251;-70
2021/05/13 04:44:39;;;;;;;12.93;11.73;;;;;;;7.68;100.00;97188.72;5003684;28;20200;-71
2021/05/13 04:47:25;;;;;;;13.53;12.33;;;;;;;7.64;100.00;97184.78;5001938;28;20209;-70
2021/05/13 04:49:54;;;;;;;13.27;11.87;;;;;;;7.70;100.00;97198.28;4999682;28;20212;-68
2021/05/13 04:52:24;;;;;;;12.17;11.17;;;;;;;7.73;100.00;97200.59;5001409;28;20343;-70
2021/05/13 04:54:53;;;;;;;12.57;11.40;;;;;;;7.84;100.00;97196.78;5005030;28;20209;-70
2021/05/13 04:57:20;;;;;;;12.23;11.23;;;;;;;7.84;100.00;97204.72;5005135;28;20208;-69
2021/05/13 04:59:48;;;;;;;12.90;11.80;;;;;;;7.93;100.00;97208.97;5004809;28;20363;-69
2021/05/13 05:02:17;;;;;;;12.30;11.13;;;;;;;8.01;100.00;97208.16;5002486;28;20232;-69
2021/05/13 05:04:44;;;;;;;12.57;11.43;;;;;;;7.99;100.00;97199.59;5003997;28;20594;-69
2021/05/13 05:07:11;;;;;;;12.60;11.50;;;;;;;7.93;100.00;97207.16;5006258;28;20216;-67
2021/05/13 05:09:39;;;;;;;12.23;10.93;;;;;;;7.75;100.00;97194.13;5004758;28;20642;-69
2021/05/13 05:12:11;;;;;;;12.50;11.30;;;;;;;7.90;100.00;97199.56;5003007;28;20605;-69
2021/05/13 05:14:39;;;;;;;12.63;11.50;;;;;;;7.91;100.00;97197.78;5003889;28;20213;-69
2021/05/13 05:17:06;;;;;;;11.93;10.83;;;;;;;7.88;100.00;97187.56;5004092;28;20224;-70
2021/05/13 05:19:35;;;;;;;13.10;11.80;;;;;;;7.87;100.00;97193.81;5002652;28;20212;-67
2021/05/13 05:22:04;;;;;;;12.13;11.03;;;;;;;7.78;100.00;97188.56;5002820;28;20615;-69
2021/05/13 05:24:31;;;;;;;11.93;10.93;;;;;;;7.90;100.00;97182.94;5002880;28;20213;-68
2021/05/13 05:26:59;;;;;;;12.43;11.23;;;;;;;7.99;100.00;97186.38;5004405;28;20223;-69
2021/05/13 05:29:26;;;;;;;13.30;12.10;;;;;;;8.13;100.00;97180.41;5001954;28;20209;-68
2021/05/13 05:31:54;;;;;;;12.73;11.53;;;;;;;7.89;100.00;97189.19;5001823;28;20240;-70
2021/05/13 05:34:21;;;;;;;13.43;12.07;;;;;;;7.94;100.00;97182.41;5004135;28;20213;-71
2021/05/13 05:36:49;;;;;;;11.97;10.87;;;;;;;8.01;100.00;97179.94;4999286;28;20206;-70
2021/05/13 05:39:17;;;;;;;13.10;11.73;;;;;;;8.05;100.00;97183.88;5001541;28;20628;-70
2021/05/13 05:41:45;;;;;;;12.87;11.77;;;;;;;7.98;100.00;97188.19;5001702;28;20228;-68
2021/05/13 05:44:14;;;;;;;12.00;10.93;;;;;;;8.15;100.00;97182.91;5003810;28;20209;-68
2021/05/13 05:46:41;;;;;;;14.17;12.93;;;;;;;8.19;100.00;97187.66;5003287;28;20205;-70
2021/05/13 05:49:09;;;;;;;12.63;11.57;;;;;;;8.25;100.00;97184.34;5002431;28;20383;-69
2021/05/13 05:51:36;;;;;;;13.40;11.77;;;;;;;8.38;100.00;97183.00;5003438;28;20568;-69
2021/05/13 05:54:06;;;;;;;12.63;11.53;;;;;;;8.45;100.00;97183.13;5002552;28;20201;-69
2021/05/13 05:56:34;;;;;;;13.33;12.03;;;;;;;8.46;100.00;97185.59;5001239;28;20684;-69
2021/05/13 05:59:01;;;;;;;12.20;11.00;;;;;;;8.48;100.00;97183.63;4999589;28;20224;-72
2021/05/13 06:01:29;;;;;;;13.23;11.60;;;;;;;8.42;100.00;97184.31;5001876;28;20244;-70
2021/05/13 06:03:57;;;;;;;13.63;11.50;;;;;;;8.35;100.00;97178.06;5002295;28;20678;-71
2021/05/13 06:06:24;;;;;;;13.83;10.87;;;;;;;8.42;100.00;97180.81;5002042;28;20228;-72
2021/05/13 06:08:52;;;;;;;12.10;10.77;;;;;;;8.55;100.00;97181.16;5000631;28;20219;-69
2021/05/13 06:11:20;;;;;;;13.50;12.20;;;;;;;8.56;100.00;97180.16;5002783;28;20241;-73
2021/05/13 06:13:48;;;;;;;13.80;11.40;;;;;;;8.73;100.00;97178.28;5000157;28;20724;-70
2021/05/13 06:16:15;;;;;;;12.57;11.33;;;;;;;8.64;100.00;97181.94;4999204;28;20500;-70
2021/05/13 06:18:50;;;;;;;12.40;11.20;;;;;;;8.82;100.00;97179.03;4999534;28;20247;-69
2021/05/13 06:21:18;;;;;;;13.37;12.07;;;;;;;8.83;100.00;97178.03;5001802;28;20220;-72
2021/05/13 06:23:47;;;;;;;12.33;11.23;;;;;;;8.82;100.00;97179.03;5000108;28;20644;-71
2021/05/13 06:26:26;;;;;;;11.73;10.83;;;;;;;8.79;100.00;97174.94;5003080;28;20205;-71
2021/05/13 06:29:01;;;;;;;11.33;10.23;;;;;;;8.76;100.00;97182.38;5001867;28;20220;-70
2021/05/13 06:31:30;;;;;;;13.47;11.30;;;;;;;8.80;100.00;97176.59;5001756;28;20574;-67
2021/05/13 06:33:58;;;;;;;11.17;10.27;;;;;;;8.95;100.00;97183.75;5001965;28;20421;-72
2021/05/13 06:36:25;;;;;;;12.37;11.17;;;;;;;9.10;100.00;97176.75;5000813;28;20712;-71
2021/05/13 06:38:52;;;;;;;11.33;10.20;;;;;;;9.20;100.00;97175.69;5001112;28;20709;-72
2021/05/13 06:41:20;;;;;;;11.37;10.30;;;;;;;9.41;100.00;97173.22;5006061;28;20225;-73
2021/05/13 06:43:49;;;;;;;10.37;9.53;;;;;;;9.45;100.00;97179.00;5006640;28;20251;-72
2021/05/13 06:46:16;;;;;;;10.60;9.60;;;;;;;9.40;100.00;97181.34;5005177;28;20681;-71
2021/05/13 06:48:49;;;;;;;11.30;10.30;;;;;;;9.50;100.00;97187.22;5005068;28;20205;-72
2021/05/13 06:51:16;;;;;;;11.20;10.23;;;;;;;9.52;100.00;97179.13;5003410;28;20233;-73
2021/05/13 06:53:43;;;;;;;12.17;11.17;;;;;;;9.41;100.00;97186.44;5009501;28;20835;-71
2021/05/13 06:56:11;;;;;;;11.83;10.73;;;;;;;9.77;100.00;97178.91;5005005;28;20228;-71
2021/05/13 06:58:38;;;;;;;11.90;10.70;;;;;;;9.84;100.00;97185.09;5003937;28;20223;-73
2021/05/13 07:01:07;;;;;;;11.33;10.23;;;;;;;9.98;100.00;97178.22;5002888;28;20240;-69
2021/05/13 07:03:34;;;;;;;10.43;9.37;;;;;;;10.18;100.00;97193.59;5003315;28;20545;-73
2021/05/13 07:06:02;;;;;;;9.80;8.97;;;;;;;10.10;100.00;97166.19;5005076;28;20243;-70
2021/05/13 07:08:29;;;;;;;9.67;8.87;;;;;;;10.39;100.00;97185.72;5005406;28;20535;-70
2021/05/13 07:10:58;;;;;;;9.27;8.47;;;;;;;10.35;100.00;97178.34;5002513;28;20239;-72
2021/05/13 07:13:26;;;;;;;8.93;8.17;;;;;;;10.20;100.00;97178.34;5004915;28;20221;-71
2021/05/13 07:15:53;;;;;;;10.13;9.27;;;;;;;10.37;100.00;97179.78;5005737;28;20227;-69
2021/05/13 07:18:22;;;;;;;8.53;7.83;;;;;;;10.31;100.00;97177.88;5005676;28;20204;-72
2021/05/13 07:20:49;;;;;;;8.33;7.53;;;;;;;10.31;100.00;97183.16;5003518;28;20225;-72
2021/05/13 07:23:17;;;;;;;8.93;8.23;;;;;;;10.43;100.00;97175.63;5004762;28;20201;-70
2021/05/13 07:25:45;;;;;;;8.67;7.97;;;;;;;10.38;100.00;97168.19;5004896;28;20216;-72
2021/05/13 07:28:13;;;;;;;9.67;8.63;;;;;;;10.60;100.00;97176.25;5005454;28;20201;-70
2021/05/13 07:30:42;;;;;;;9.10;8.20;;;;;;;10.77;100.00;97176.88;5002969;28;20228;-72
2021/05/13 07:33:10;;;;;;;8.03;7.33;;;;;;;10.97;100.00;97174.47;5002704;28;20251;-73
2021/05/13 07:35:38;;;;;;;8.40;7.60;;;;;;;11.06;100.00;97171.69;5003223;28;20636;-71
2021/05/13 07:38:06;;;;;;;8.70;8.00;;;;;;;11.02;100.00;97178.38;5002571;28;20215;-69
2021/05/13 07:40:34;;;;;;;8.27;7.60;;;;;;;11.14;100.00;97176.88;5001868;28;20221;-71
2021/05/13 07:43:01;;;;;;;7.60;7.00;;;;;;;11.07;100.00;97182.13;5004908;28;20207;-69
2021/05/13 07:45:30;;;;;;;8.00;7.40;;;;;;;11.19;100.00;97177.16;5005866;28;20224;-70
2021/05/13 07:47:58;;;;;;;6.80;6.30;;;;;;;11.07;98.57;97175.97;5004224;28;20573;-68
2021/05/13 07:50:26;;;;;;;7.13;6.63;;;;;;;10.99;99.70;97183.03;5004185;28;20843;-71
2021/05/13 07:52:55;;;;;;;10.87;7.20;;;;;;;11.08;98.83;97173.16;5004241;28;20229;-67
2021/05/13 07:55:22;;;;;;;8.53;7.83;;;;;;;11.13;99.08;97181.38;5005819;28;20213;-71
2021/05/13 07:57:49;;;;;;;8.03;7.33;;;;;;;11.28;100.00;97181.31;5004384;28;20696;-71
2021/05/13 08:00:18;;;;;;;8.73;7.00;;;;;;;11.20;97.43;97183.25;5004616;28;20240;-71
2021/05/13 08:02:45;;;;;;;10.53;8.00;;;;;;;11.15;98.51;97181.16;5004280;28;20313;-70
2021/05/13 08:05:13;;;;;;;7.80;7.27;;;;;;;11.25;99.42;97186.16;5003814;28;20205;-68
2021/05/13 08:07:41;;;;;;;8.07;7.33;;;;;;;11.32;99.76;97175.63;5006039;28;20213;-70
2021/05/13 08:10:10;;;;;;;7.23;6.63;;;;;;;11.25;98.32;97180.88;5002168;28;20684;-72
2021/05/13 08:12:38;;;;;;;7.50;6.80;;;;;;;11.40;95.24;97173.69;5001977;28;20231;-71
2021/05/13 08:15:08;;;;;;;7.10;6.53;;;;;;;11.43;94.73;97175.13;5004712;28;20213;-69
2021/05/13 08:17:36;;;;;;;6.83;6.30;;;;;;;11.37;94.24;97175.88;5002638;28;20205;-72
2021/05/13 08:20:05;;;;;;;7.47;6.77;;;;;;;11.38;95.83;97175.72;5004058;28;20201;-72
2021/05/13 08:22:33;;;;;;;6.80;6.10;;;;;;;11.55;94.40;97178.09;5007726;28;20593;-71
2021/05/13 08:25:01;;;;;;;8.20;7.10;;;;;;;11.76;92.70;97163.19;5003103;28;20201;-69
2021/05/13 08:27:30;;;;;;;7.20;6.60;;;;;;;11.91;93.85;97169.22;5004311;28;20681;-69
2021/05/13 08:29:58;;;;;;;6.87;6.33;;;;;;;12.04;89.19;97175.66;5002722;28;20212;-72
2021/05/13 08:32:25;;;;;;;7.93;6.33;;;;;;;11.96;90.41;97164.13;5004513;28;20240;-72
2021/05/13 08:34:53;;;;;;;7.27;6.67;;;;;;;12.23;86.30;97161.69;5002290;28;20201;-72
2021/05/13 08:37:20;;;;;;;7.13;6.33;;;;;;;12.39;86.70;97167.69;5000876;28;20208;-72
2021/05/13 08:39:48;;;;;;;9.03;6.90;;;;;;;12.29;87.65;97160.09;5001349;28;20209;-70
2021/05/13 08:42:16;;;;;;;7.33;6.60;;;;;;;12.17;88.80;97165.13;5001342;28;20232;-71
2021/05/13 08:44:45;;;;;;;6.53;5.97;;;;;;;12.49;84.73;97164.69;5003493;28;20610;-72
2021/05/13 08:47:13;;;;;;;5.97;5.57;;;;;;;12.49;87.63;97159.38;5004837;28;20244;-69
2021/05/13 08:49:41;;;;;;;6.30;5.80;;;;;;;12.51;85.17;97154.69;5002140;28;20356;-73
2021/05/13 08:52:09;;;;;;;6.57;5.97;;;;;;;12.74;82.70;97159.69;5004516;28;20788;-71
2021/05/13 08:54:37;;;;;;;6.30;5.83;;;;;;;12.71;82.94;97158.28;5004268;28;20382;-70
2021/05/13 08:57:05;;;;;;;6.57;5.87;;;;;;;12.81;83.54;97146.44;5002641;28;20235;-71
2021/05/13 08:59:32;;;;;;;6.33;5.83;;;;;;;13.03;84.62;97152.44;5006641;28;20300;-73
2021/05/13 09:02:01;;;;;;;7.47;5.30;;;;;;;13.11;79.88;97148.78;5005476;28;20233;-72
2021/05/13 09:04:37;;;;;;;5.90;5.40;;;;;;;13.22;78.53;97147.34;5005135;28;20275;-72
2021/05/13 09:07:13;;;;;;;8.90;5.47;;;;;;;13.14;77.82;97151.03;5004103;28;20204;-70
2021/05/13 09:09:55;;;;;;;5.97;5.43;;;;;;;13.24;77.57;97156.78;5004047;28;20213;-71
2021/05/13 09:12:23;;;;;;;5.80;5.40;;;;;;;13.54;77.71;97147.63;5000776;28;20205;-70
2021/05/13 09:15:02;;;;;;;5.63;5.20;;;;;;;13.62;76.60;97149.28;5003637;28;20233;-70
2021/05/13 09:17:31;;;;;;;6.57;5.33;;;;;;;13.98;76.11;97146.19;5003688;28;20228;-69
2021/05/13 09:20:00;;;;;;;6.13;5.37;;;;;;;13.84;74.25;97149.91;5003479;28;20219;-69
2021/05/13 09:22:29;;;;;;;5.70;5.30;;;;;;;13.63;73.02;97151.72;5004382;28;20209;-70
2021/05/13 09:24:59;;;;;;;5.53;5.03;;;;;;;13.53;76.78;97143.34;5002560;28;20205;-70
2021/05/13 09:27:30;;;;;;;7.70;5.37;;;;;;;13.67;74.62;97152.16;5004095;28;20205;-70
2021/05/13 09:30:14;;;;;;;5.63;5.20;;;;;;;13.92;71.20;97148.88;4998391;28;20204;-68
2021/05/13 09:32:44;;;;;;;5.87;5.47;;;;;;;13.68;74.33;97141.31;5002195;28;20208;-69
2021/05/13 09:35:14;;;;;;;6.33;5.83;;;;;;;13.74;73.26;97147.63;5004010;28;20201;-70
2021/05/13 09:37:44;;;;;;;6.20;5.30;;;;;;;13.73;71.69;97146.84;5003478;28;20665;-71
2021/05/13 09:40:13;;;;;;;4.87;4.57;;;;;;;13.46;72.88;97140.69;5002405;28;20932;-72
2021/05/13 09:42:40;;;;;;;6.20;4.90;;;;;;;13.38;69.79;97147.00;5003713;28;20211;-69
2021/05/13 09:45:09;;;;;;;5.50;5.10;;;;;;;13.83;70.00;97140.28;5003754;28;20216;-69
2021/05/13 09:47:37;;;;;;;5.77;5.23;;;;;;;13.81;70.77;97137.81;5002318;28;20669;-70
2021/05/13 09:50:08;;;;;;;6.80;6.30;;;;;;;13.74;72.11;97129.84;5000842;28;20201;-70
2021/05/13 09:52:45;;;;;;;5.20;4.70;;;;;;;14.17;67.61;97127.72;5005169;28;20491;-71
2021/05/13 09:55:27;;;;;;;4.93;4.63;;;;;;;14.32;69.65;97124.81;5003555;28;20196;-70
2021/05/13 09:57:58;;;;;;;5.50;5.07;;;;;;;14.51;67.43;97127.63;5002384;28;20227;-72
2021/05/13 10:00:40;;;;;;;5.23;4.77;;;;;;;14.48;67.27;97121.69;4997067;28;20229;-71
2021/05/13 10:03:10;;;;;;;5.20;4.73;;;;;;;14.82;66.80;97120.75;4999459;28;20213;-71
2021/05/13 10:05:40;;;;;;;6.27;5.67;;;;;;;14.96;63.99;97111.66;5000672;28;20215;-67
2021/05/13 10:08:08;;;;;;;5.63;4.87;;;;;;;14.93;65.63;97111.28;5001651;28;20670;-71
2021/05/13 10:10:37;;;;;;;5.20;4.80;;;;;;;14.57;66.06;97108.13;5003557;28;20248;-71
2021/05/13 10:13:06;;;;;;;5.00;4.60;;;;;;;14.58;65.69;97109.75;4999523;28;20208;-70
2021/05/13 10:15:34;;;;;;;5.47;4.30;;;;;;;14.80;65.95;97101.50;5002508;28;20662;-68
2021/05/13 10:18:07;;;;;;;4.47;4.07;;;;;;;14.81;63.52;97108.47;5003357;28;20351;-69
2021/05/13 10:20:36;;;;;;;4.57;4.17;;;;;;;14.89;62.79;97109.03;5001306;28;20229;-69
2021/05/13 10:23:06;;;;;;;4.77;4.47;;;;;;;14.65;64.57;97091.06;4999682;28;20204;-68
2021/05/13 10:25:36;;;;;;;4.73;4.17;;;;;;;14.87;66.03;97095.09;5001330;28;20212;-70
2021/05/13 10:28:04;;;;;;;4.57;4.17;;;;;;;14.83;65.51;97095.72;5000854;28;20201;-69
2021/05/13 10:30:34;;;;;;;5.73;4.87;;;;;;;15.28;65.43;97090.31;5000431;28;20609;-68
2021/05/13 10:33:16;;;;;;;4.67;3.97;;;;;;;14.93;64.42;97089.94;5000613;28;20205;-70
2021/05/13 10:36:09;;;;;;;4.13;3.83;;;;;;;15.23;64.47;97087.47;4998279;28;20211;-67
2021/05/13 10:38:40;;;;;;;3.90;3.70;;;;;;;15.30;64.76;97085.56;5000490;28;20209;-68
2021/05/13 10:41:44;;;;;;;4.70;4.40;;;;;;;15.20;65.13;97082.56;5002516;28;20228;-69
2021/05/13 10:44:35;;;;;;;4.90;4.40;;;;;;;14.87;64.41;97083.59;4999204;28;20218;-69
2021/05/13 10:47:04;;;;;;;4.47;4.07;;;;;;;14.71;65.16;97084.91;5001374;28;20209;-69
2021/05/13 10:49:31;;;;;;;4.57;4.27;;;;;;;14.96;63.38;97082.31;5000068;28;20238;-69
2021/05/13 10:52:19;;;;;;;5.10;4.13;;;;;;;14.93;64.41;97074.72;5000896;28;20225;-69
2021/05/13 10:54:47;;;;;;;4.77;4.30;;;;;;;14.65;64.91;97075.91;5002344;28;20227;-70
2021/05/13 10:57:18;;;;;;;4.50;4.10;;;;;;;14.64;67.36;97076.09;5001993;28;20212;-68
2021/05/13 11:00:22;;;;;;;5.07;4.70;;;;;;;14.55;67.45;97068.34;5001111;28;20205;-68
2021/05/13 11:02:50;;;;;;;4.70;4.23;;;;;;;14.78;66.40;97067.06;4940412;28;20207;-70
2021/05/13 11:05:41;;;;;;;3.80;3.50;;;;;;;14.82;64.77;97067.41;4941977;28;20207;-67
2021/05/13 11:08:36;;;;;;;4.47;4.03;;;;;;;14.32;64.90;97066.19;4980521;28;20209;-68
2021/05/13 11:11:05;;;;;;;4.47;4.07;;;;;;;14.15;67.71;97057.84;4998930;28;20229;-69
2021/05/13 11:13:40;;;;;;;5.43;5.03;;;;;;;14.02;66.95;97062.19;5001558;28;20613;-67
2021/05/13 11:16:07;;;;;;;4.37;4.17;;;;;;;14.36;68.58;97051.41;4998981;28;20212;-70
2021/05/13 11:18:35;;;;;;;4.70;4.30;;;;;;;14.67;66.44;97057.84;5002173;28;20259;-68
2021/05/13 11:21:02;;;;;;;5.03;4.20;;;;;;;14.23;67.40;97054.16;5000911;28;20258;-69
2021/05/13 11:23:31;;;;;;;4.23;3.93;;;;;;;14.53;65.60;97056.25;5003651;28;20292;-69
2021/05/13 11:26:00;;;;;;;5.80;4.63;;;;;;;14.64;66.38;97055.59;5004474;28;20205;-67
2021/05/13 11:28:31;;;;;;;6.23;4.50;;;;;;;14.65;65.57;97064.41;5005348;28;20208;-70
2021/05/13 11:31:18;;;;;;;4.90;4.50;;;;;;;14.28;68.94;97054.31;5004824;28;20240;-68
2021/05/13 11:33:47;;;;;;;5.10;4.10;;;;;;;14.67;70.12;97054.34;5004752;28;20684;-69